• Join FlightAware (Why Join?)
  • Login
  • US Flag 
10:34PM EST


 

Airport Tracker/Info


-or-


 

Live Flight TrackerFlight Track Log ✈ SWA499 ✈ 24-Apr-2013 ✈ KMCI - KBWI

Flight Track Log - Related Links

Times and Time Zones

All times are in EDT time to prevent confusion due to time zone crossing. See the SWA499 flight status page for this flight to view local times or setup timezone preferences in your user account.

Time Position Orientation Groundspeed Altitude Reporting Facility
EDT Latitude Longitude Course Direction KTS MPH feet Rate Location/Type
02:44PM 39.2833 -94.7000 194° South 154 177 1,500  Level Kansas City TRACON
02:45PM 39.2333 -94.7167 194° South 203 234 4,300 2,940 Climbing Kansas City TRACON
02:46PM 39.1836 -94.7147 178° South 235 270 7,500 3,300 Climbing Kansas City Center
02:47PM 39.1878 -94.6275 86° East 268 308 10,700 3,180 Climbing Kansas City Center
02:48PM 39.2242 -94.5044 69° East 334 384 14,100 3,180 Climbing Kansas City Center
02:49PM 39.2586 -94.3864 69° East 364 419 17,400 3,120 Climbing Kansas City Center
02:50PM 39.3028 -94.2369 69° East 399 459 20,500 2,580 Climbing Kansas City Center
02:51PM 39.3439 -94.0964 69° East 437 503 22,800 1,740 Climbing Kansas City Center
02:52PM 39.3911 -93.9211 71° East 462 532 24,100 1,620 Climbing Kansas City Center
02:53PM 39.4133 -93.7494 80° East 490 564 26,300 2,100 Climbing Kansas City Center
02:54PM 39.4361 -93.5689 81° East 511 588 28,500 1,920 Climbing Kansas City Center
02:55PM 39.4589 -93.3814 81° East 527 606 30,300 1,680 Climbing Kansas City Center
02:56PM 39.4825 -93.1911 81° East 539 620 32,000 2,040 Climbing Kansas City Center
02:57PM 39.5081 -92.9514 82° East 561 646 34,600 2,220 Climbing Kansas City Center
02:58PM 39.5300 -92.7539 82° East 564 649 36,700 1,680 Climbing Kansas City Center
02:59PM 39.5494 -92.5656 82° East 548 631 38,100 1,260 Climbing Kansas City Center
03:00PM 39.5619 -92.3747 85° East 541 623 39,400 1,320 Climbing Kansas City Center
03:01PM 39.5739 -92.1842 85° East 539 620 40,900 780 Climbing Kansas City Center
03:02PM 39.5894 -91.9578 85° East 536 617 41,000  Climbing Kansas City Center
03:03PM 39.6025 -91.7669 85° East 537 618 41,000  Level Kansas City Center
03:04PM 39.6133 -91.5794 86° East 534 615 41,000  Level Kansas City Center
03:06PM 39.6233 -91.3900 86° East 533 613 41,000  Level Kansas City Center
03:07PM 39.6353 -91.1944 85° East 534 615 41,000  Level Kansas City Center
03:08PM 39.6467 -91.0028 86° East 533 613 41,000  Level Kansas City Center
03:09PM 39.6600 -90.7714 86° East 534 615 41,000  Level Kansas City Center
03:10PM 39.6692 -90.5806 86° East 531 611 41,000  Level Kansas City Center
03:11PM 39.6792 -90.3906 86° East 529 609 41,000  Level Kansas City Center
03:12PM 39.6889 -90.2000 86° East 528 608 41,000  Level Kansas City Center
03:13PM 39.6981 -90.0086 86° East 530 610 41,000  Level Kansas City Center
03:14PM 39.7069 -89.8178 86° East 529 609 41,000  Level Kansas City Center
03:15PM 39.7164 -89.5975 87° East 531 611 41,000  Level Kansas City Center
03:16PM 39.7258 -89.4061 86° East 532 612 41,000  Level Kansas City Center
03:17PM 39.7339 -89.2133 87° East 536 617 41,000  Level Kansas City Center
03:18PM 39.7411 -89.0200 87° East 537 618 41,000  Level Kansas City Center
03:19PM 39.7486 -88.8258 87° East 539 620 41,000  Level Kansas City Center
03:20PM 39.7561 -88.5925 88° East 540 621 41,000  Level Kansas City Center
03:21PM 39.7647 -88.3964 87° East 543 625 41,000  Level Kansas City Center
03:22PM 39.7717 -88.1983 87° East 548 631 41,000  Level Kansas City Center
03:22PM 39.7731 -88.1006 89° East 548 631 41,000  Level Indianapolis Center
03:23PM 39.7781 -87.9019 88° East 548 631 41,000  Level Indianapolis Center
03:25PM 39.7844 -87.7039 88° East 547 629 41,000  Level Indianapolis Center
03:26PM 39.7908 -87.5044 88° East 547 629 41,000  Level Indianapolis Center
03:27PM 39.7958 -87.3056 88° East 547 629 41,000  Level Indianapolis Center
03:28PM 39.7997 -87.1083 88° East 545 627 41,000  Level Indianapolis Center
03:29PM 39.8039 -86.9128 88° East 542 624 41,000  Level Indianapolis Center
03:30PM 39.8097 -86.6844 88° East 537 618 41,000  Level Indianapolis Center
03:31PM 39.8128 -86.4875 89° East 541 623 41,000  Level Indianapolis Center
03:32PM 39.8306 -86.2856 83° East 542 624 41,000  Level Indianapolis Center
03:33PM 39.8731 -86.0956 74° East 539 620 41,000  Level Indianapolis Center
03:34PM 39.9125 -85.9056 75° East 539 620 41,000  Level Indianapolis Center
03:35PM 39.9522 -85.7156 75° East 539 620 41,000  Level Indianapolis Center
03:36PM 39.9869 -85.5264 76° East 534 615 41,000  Level Indianapolis Center
03:37PM 39.9917 -85.3325 88° East 531 611 41,000  Level Indianapolis Center
03:38PM 39.9953 -85.1386 89° East 532 612 41,000  Level Indianapolis Center
03:39PM 40.0019 -84.9131 88° East 531 611 41,000  Level Indianapolis Center
03:40PM 40.0047 -84.7353 89° East 533 613 41,000  Level Indianapolis Center
03:41PM 40.0081 -84.5392 89° East 535 616 41,000  Level Indianapolis Center
03:42PM 40.0117 -84.3453 89° East 531 611 41,000  Level Indianapolis Center
03:43PM 40.0153 -84.1492 89° East 534 615 41,000  Level Indianapolis Center
03:44PM 40.0189 -83.9211 89° East 532 612 41,000  Level Indianapolis Center
03:45PM 40.0203 -83.7250 89° East 532 612 41,000  Level Indianapolis Center
03:46PM 40.0219 -83.5283 89° East 529 609 41,000  Level Indianapolis Center
03:47PM 40.0244 -83.3297 89° East 532 612 41,000  Level Indianapolis Center
03:48PM 40.0256 -83.1322 90° East 533 613 41,000  Level Indianapolis Center
03:49PM 40.0264 -82.9383 90° East 529 609 41,000  Level Indianapolis Center
03:50PM 40.0275 -82.7469 90° East 524 603 41,000  Level Indianapolis Center
03:51PM 40.0278 -82.5564 90° East 521 600 41,000  Level Indianapolis Center
03:52PM 40.0278 -82.3681 90° East 516 594 41,000  Level Indianapolis Center
03:53PM 40.0269 -82.1792 90° East 516 594 41,000  Level Indianapolis Center
03:54PM 40.0267 -81.9586 90° East 518 596 41,000  Level Indianapolis Center
03:56PM 40.0261 -81.7683 90° East 519 597 41,000  Level Indianapolis Center
03:57PM 40.0247 -81.5794 90° East 520 598 41,000  Level Indianapolis Center
03:58PM 40.0228 -81.3886 91° East 521 600 41,000  Level Indianapolis Center
03:59PM 40.0217 -81.2031 90° East 515 593 41,000  Level Indianapolis Center
04:00PM 40.0225 -81.0086 90° East 513 590 41,000  Level Cleveland Center
04:01PM 40.0169 -80.8217 92° East 513 590 41,000 -900 Level Cleveland Center
04:02PM 39.9858 -80.6453 103° East 506 582 39,300 -1,020 Descending Cleveland Center
04:03PM 39.9503 -80.4775 105° East 496 571 39,000 -360 Descending Cleveland Center
04:04PM 39.9167 -80.3017 104° East 491 565 38,600 -1,020 Descending Cleveland Center
04:05PM 39.8828 -80.1367 105° East 486 559 37,000 -1,380 Descending Cleveland Center
04:06PM 39.8489 -79.9800 106° East 465 535 35,900 -960 Descending Cleveland Center
04:07PM 39.8167 -79.8236 105° East 447 514 35,100 -1,440 Descending Cleveland Center
04:08PM 39.7842 -79.6619 105° East 447 514 33,100 -2,160 Descending Cleveland Center
04:09PM 39.7536 -79.5164 105° East 459 528 30,800 -2,220 Descending Cleveland Center
04:10PM 39.7208 -79.3606 105° East 452 520 28,700 -2,220 Descending Cleveland Center
04:11PM 39.6900 -79.2072 105° East 446 513 26,400 -2,160 Descending Cleveland Center
04:11PM 39.6781 -79.1478 105° East 457 526 25,900 -1,080 Descending Washington Center
04:12PM 39.6483 -79.0144 106° East 431 496 25,000 -480 Descending Washington Center
04:13PM 39.6072 -78.8481 108° East 433 498 25,000 -600 Level Washington Center
04:14PM 39.5758 -78.6986 105° East 428 493 23,800 -1,800 Descending Washington Center
04:15PM 39.5481 -78.5547 104° East 421 484 21,500 -2,280 Descending Washington Center
04:16PM 39.5119 -78.4133 108° East 421 484 19,300 -2,280 Descending Washington Center
04:17PM 39.4817 -78.2722 105° East 416 479 17,000 -2,160 Descending Washington Center
04:18PM 39.4494 -78.1342 107° East 404 465 15,000 -1,020 Descending Washington Center
04:19PM 39.4228 -78.0094 105° East 382 440 15,000  Level Washington Center
04:20PM 39.4233 -77.8725 90° East 371 427 15,000  Level Washington Center
04:21PM 39.4300 -77.7356 86° East 376 433 15,000 -600 Level Washington Center
04:22PM 39.4364 -77.6014 86° East 376 433 13,800 -1,500 Descending Washington Center
04:23PM 39.4408 -77.4672 88° East 376 433 12,100 -1,500 Descending Washington Center
04:24PM 39.4500 -77.3500 84° East 365 420 11,000 -660 Descending Potomac TRACON
04:25PM 39.4667 -77.2333 79° East 352 405 10,900 -840 Descending Potomac TRACON
04:26PM 39.5000 -77.1000 72° East 347 399 9,400 -1,440 Descending Potomac TRACON
04:27PM 39.5167 -76.9833 79° East 328 377 8,100 -1,500 Descending Potomac TRACON
04:28PM 39.5333 -76.8667 79° East 328 377 6,400 -1,260 Descending Potomac TRACON
04:29PM 39.4833 -76.8000 134° Southeast 282 325 5,600 -1,200 Descending Potomac TRACON
04:30PM 39.4167 -76.7833 169° South 239 275 4,200 -1,320 Descending Potomac TRACON
04:31PM 39.3667 -76.8000 194° South 223 257 3,100 -600 Descending Potomac TRACON
04:32PM 39.3000 -76.8167 191° South 207 238 3,000 -360 Descending Potomac TRACON
04:33PM 39.2500 -76.8333 194° South 196 226 2,400 -540 Descending Potomac TRACON
04:34PM 39.2000 -76.8167 166° South 194 223 2,000 -600 Descending Potomac TRACON
04:35PM 39.1833 -76.7667 113° Southeast 182 209 1,300 -720 Descending Potomac TRACON
04:36PM 39.1833 -76.7167 90° East 133 153 600 -720 Descending Potomac TRACON
04:38PM 39.1667 -76.6667 142° Southeast  Level FlightAware Approximate
04:45PM 39.1754 -76.6683 142° Southeast  Level Estimated
04:46PM 39.1754 -76.6683 142° Southeast  Level Estimated
04:47PM 39.1754 -76.6683 142° Southeast  Level Estimated